x

Columbia River Bar - 20nm West Of Columbia River Mouth (46029) Wave Buoy

3:50 - Tue 26th Jul 2016 All times are PDT. -7 hours from GMT.

  • Sig Wave height 5.6ft
  • Swell Direction
  • Peak Period 10s
  • Average Period 6s
  • Wind
    13mph, 20mph gusts
  • Sea Temp 62°f
  • Ar Temp 61°f
  • Sea Pressure 1021.9mb
  • Columbia River Bar - 20nm West Of Columbia River Mouth
  • Columbia River Bar - 20nm West Of Columbia River Mouth

More Historic Weather Station data

Upgrade to MSW Pro to gain access to the past 30 days of data for over 8000 Wavebouys and Weather Stations around the globe.

Join Pro

Comparision Forecast

View Surf forecast
   
Ter 07/26 3:50 5.5ft 10s 6s 13 20 mph 1021.9mb 62f 61f
2:50 5.5ft 10s 6s 13 16 mph 1021.9mb 62f 60f
1:50 6ft 11s 6s 13 16 mph 1021.9mb 63f 60f
12:50 5.5ft 11s 6s 13 16 mph 1022mb 63f 60f
Seg 07/25 11:50 6ft 10s 6s 16 20 mph 1021.7mb 63f 60f
10:50 6ft 10s 6s 16 20 mph 1021.8mb 62f 60f
9:50 6ft 10s 6s 18 20 mph 1021.8mb 62f 61f
8:50 6.5ft 10s 6s 18 22 mph 1021mb 62f 61f
7:50 6ft 11s 6s 16 18 mph 1020.9mb 62f 61f
6:50 6ft 11s 6s 16 20 mph 1020.7mb 62f 61f
5:50 5ft 11s 6s 16 18 mph 1020.7mb 62f 62f
4:50 5.5ft 9s 6s 13 16 mph 1020.9mb 62f 62f
3:50 5ft 9s 6s 16 18 mph 1020.9mb 62f 62f
2:50 5ft 10s 6s 13 18 mph 1021.1mb 62f 62f
1:50 4.5ft 8s 6s 13 18 mph 1021mb 62f 62f
12:50 4.5ft 8s 6s 13 16 mph 1021mb 62f 61f
10:50 4.5ft 8s 5s 13 16 mph 1020.8mb 63f 62f
9:50 4.5ft 8s 5s 11 13 mph 1020.6mb 63f 61f
8:50 4ft 6s 5s 11 13 mph 1020.4mb 63f 61f
7:50 4.5ft 5s 5s 11 13 mph 1020.1mb 64f 61f
6:50 4.5ft 6s 5s 13 16 mph 1019.7mb 64f 61f
5:50 4.5ft 6s 5s 13 18 mph 1019.4mb 64f 61f
4:50 4.5ft 5s 5s 13 18 mph 1019.1mb 64f 61f
3:50 5ft 6s 5s 16 18 mph 1019mb 64f 61f
2:50 4.5ft 7s 5s 16 20 mph 1018.8mb 64f 61f
1:50 4.5ft 7s 5s 16 20 mph 1018.7mb 64f 62f
12:50 4.5ft 5s 5s 16 18 mph 1018.8mb 64f 62f
Dom 07/24 11:50 5ft 5s 5s 16 20 mph 1018.9mb 64f 62f
10:50 5ft 5s 5s 18 22 mph 1019.1mb 64f 62f
9:50 5ft 5s 5s 20 22 mph 1018.6mb 64f 62f
8:50 4.5ft 5s 5s 22 25 mph 1018.2mb 64f 62f
7:50 5ft 5s 5s 20 25 mph 1018.4mb 64f 62f
6:50 5ft 5s 5s 25 27 mph 1017.9mb 63f 62f
5:50 4.5ft 5s 4s 25 29 mph 1018mb 63f 63f
4:50 4.5ft 5s 4s 22 27 mph 1018.7mb 63f 62f
3:50 4.5ft 4s 4s 22 27 mph 1019.1mb 63f 62f
2:50 4ft 5s 4s 22 27 mph 1019.6mb 64f 62f
1:50 4ft 16s 4s 22 25 mph 1019.8mb 64f 62f
12:50 3.5ft 4s 4s 20 25 mph 1020.4mb 63f 62f
11:50 4ft 16s 5s 18 22 mph 1020.8mb 62f 61f
10:50 3.5ft 7s 4s 18 20 mph 1020.9mb 62f 61f
9:50 3.5ft 8s 5s 18 20 mph 1020.9mb 62f 61f
8:50 4ft 7s 5s 18 20 mph 1021.1mb 62f 61f
7:50 4ft 8s 5s 18 20 mph 1021mb 62f 61f
6:50 3.5ft 8s 5s 16 18 mph 1021mb 62f 61f
5:50 4ft 4s 5s 16 20 mph 1020.9mb 62f 61f
4:50 3.5ft 7s 5s 16 18 mph 1021.1mb 61f 61f
3:50 3.5ft 8s 5s 16 20 mph 1021.2mb 62f 61f
2:50 3.5ft 8s 5s 16 18 mph 1021.8mb 62f 61f
1:50 3.5ft 8s 4s 16 20 mph 1022.2mb 63f 62f
12:50 3.5ft 8s 5s 18 20 mph 1022.7mb 63f 62f
Sáb 07/23 11:50 3.5ft 8s 5s 16 20 mph 1023.1mb 63f 62f
10:50 3.5ft 14s 4s 18 20 mph 1023.7mb 63f 62f
9:50 3.5ft 8s 4s 18 20 mph 1023.8mb 63f 62f
8:50 3ft 8s 4s 18 20 mph 1024mb 64f 62f
7:50 3.5ft 8s 4s 18 20 mph 1024.3mb 64f 62f
6:50 3.5ft 8s 5s 16 18 mph 1024.6mb 64f 62f
5:50 3ft 8s 5s 16 18 mph 1025mb 64f 62f
4:50 3ft 8s 6s 13 18 mph 1025.4mb 64f 62f
3:50 3ft 8s 6s 13 16 mph 1026mb 64f 62f
2:50 3ft 8s 6s 13 16 mph 1026mb 64f 62f
1:50 3.5ft 8s 5s 9 11 mph 1026.2mb 64f 62f
12:50 3ft 8s 5s 13 16 mph 1026.3mb 63f 61f
11:50 3ft 8s 6s 13 16 mph 1026.3mb 62f 62f
10:50 3.5ft 9s 5s 9
mph
1026.5mb 62f 62f
9:50 3.5ft 8s 5s 11 13 mph 1026.3mb 62f 61f
8:50 3ft 8s 5s 13 18 mph 1026.2mb 62f 60f
7:50 3.5ft 9s 6s 7 9 mph 1026mb 62f 61f
6:50 3.5ft 15s 5s 16 18 mph 1025.9mb 62f 60f
5:50 3.5ft 15s 6s 13 16 mph 1025.5mb 62f 61f
4:50 3ft 8s 6s 9 11 mph 1025.3mb 62f 61f
3:50 3ft 15s 6s 9
mph
1025.4mb 62f 61f
2:50 3ft 8s 6s 7 9 mph 1025.6mb 62f 61f
1:50 3ft 15s 7s 7 9 mph 1026.2mb 63f 61f
12:50 3ft 9s 6s 7 9 mph 1026.5mb 64f 62f
Sex 07/22 11:50 3ft 9s 6s 13 16 mph 1026.9mb 64f 61f
10:50 3.5ft 8s 6s 9 11 mph 1027.1mb 63f 61f
9:50 3.5ft 8s 6s 13 18 mph 1027.1mb 63f 60f
8:50 3.5ft 8s 6s  -  2 mph 1027.1mb 63f 60f
7:50 3.5ft 8s 6s 7 11 mph 1027.1mb 63f 61f
6:50 3.5ft 9s 7s 7 9 mph 1026.8mb 64f 62f
5:50 3.5ft 8s 6s 7 9 mph 1027mb 64f 62f
4:50 3.5ft 15s 6s 7 9 mph 1027.1mb 64f 62f
3:50 3.5ft 9s 6s 7
mph
1027.2mb 63f 62f
2:50 3.5ft 8s 6s 4 7 mph 1027.4mb 63f 61f
1:50 3.5ft 15s 6s 13 16 mph 1027.2mb 63f 60f
12:50 4ft 8s 6s 16 18 mph 1026.7mb 63f 60f